Time;durP1;ratioP1;P1;durP2;ratioP2;P2;SDS_P1;SDS_P2;PMS_P1;PMS_P2;Temp;Humidity;BMP_temperature;BMP_pressure;BME280_temperature;BME280_humidity;BME280_pressure;Samples;Min_cycle;Max_cycle;Signal;HPM_P1;HPM_P2
2023/10/23 00:01:06;;;;;;;1.25;0.93;;;;;;;;;;5056340;28;20268;-87
2023/10/23 00:03:33;;;;;;;0.75;0.75;;;;;;;;;;5055920;28;20257;-89
2023/10/23 00:06:01;;;;;;;0.80;0.80;;;;;;;;;;5056140;28;20229;-87
2023/10/23 00:08:30;;;;;;;0.98;0.75;;;;;;;;;;5055468;28;20249;-88
2023/10/23 00:10:57;;;;;;;0.80;0.80;;;;;;;;;;5055778;28;20243;-87
2023/10/23 00:13:25;;;;;;;0.52;0.52;;;;;;;;;;5055122;28;20736;-86
2023/10/23 00:15:52;;;;;;;0.68;0.68;;;;;;;;;;5056301;28;20193;-86
2023/10/23 00:18:20;;;;;;;0.80;0.80;;;;;;;;;;5056706;28;20233;-87
2023/10/23 00:20:47;;;;;;;0.40;0.40;;;;;;;;;;5055662;28;20566;-86
2023/10/23 00:23:15;;;;;;;0.50;0.50;;;;;;;;;;5055018;28;20292;-87
2023/10/23 00:25:44;;;;;;;0.70;0.70;;;;;;;;;;5055151;28;20393;-88
2023/10/23 00:28:12;;;;;;;0.50;0.50;;;;;;;;;;5055481;28;20225;-88
2023/10/23 00:30:39;;;;;;;0.50;0.50;;;;;;;;;;5054984;28;20289;-86
2023/10/23 00:33:07;;;;;;;0.73;0.70;;;;;;;;;;5056401;28;20233;-88
2023/10/23 00:35:36;;;;;;;0.60;0.60;;;;;;;;;;5056198;28;20244;-87
2023/10/23 00:38:03;;;;;;;0.50;0.50;;;;;;;;;;5055806;28;20290;-87
2023/10/23 00:40:31;;;;;;;0.70;0.70;;;;;;;;;;5055436;28;20229;-87
2023/10/23 00:43:12;;;;;;;1.45;0.80;;;;;;;;;;5055207;28;20260;-88
2023/10/23 00:45:48;;;;;;;0.40;0.40;;;;;;;;;;5056519;28;20273;-87
2023/10/23 00:48:15;;;;;;;1.92;0.70;;;;;;;;;;5054774;28;20217;-87
2023/10/23 00:50:43;;;;;;;0.57;0.57;;;;;;;;;;5055312;28;20233;-88
2023/10/23 00:53:10;;;;;;;0.60;0.60;;;;;;;;;;5055556;28;20305;-89
2023/10/23 00:55:38;;;;;;;1.17;0.80;;;;;;;;;;5055348;28;20228;-86
2023/10/23 00:58:07;;;;;;;0.50;0.50;;;;;;;;;;5055728;28;20667;-86
2023/10/23 01:00:35;;;;;;;0.50;0.50;;;;;;;;;;5055024;28;20261;-87
2023/10/23 01:03:03;;;;;;;0.80;0.80;;;;;;;;;;5055895;28;20217;-87
2023/10/23 01:05:31;;;;;;;0.57;0.57;;;;;;;;;;5056103;28;20225;-87
2023/10/23 01:07:58;;;;;;;1.05;1.05;;;;;;;;;;5054346;28;20280;-88
2023/10/23 01:10:26;;;;;;;0.75;0.75;;;;;;;;;;5060523;28;20223;-87
2023/10/23 01:12:54;;;;;;;0.60;0.60;;;;;;;;;;5099885;28;20286;-88
2023/10/23 01:15:23;;;;;;;1.00;0.95;;;;;;;;;;5099326;28;20290;-89
2023/10/23 01:17:51;;;;;;;1.17;1.08;;;;;;;;;;5098418;28;20304;-90
2023/10/23 01:20:19;;;;;;;0.95;0.80;;;;;;;;;;5099309;28;20231;-88
2023/10/23 01:22:47;;;;;;;0.98;0.80;;;;;;;;;;5098338;28;20207;-88
2023/10/23 01:25:16;;;;;;;0.80;0.80;;;;;;;;;;5099520;28;20218;-86
2023/10/23 01:27:44;;;;;;;0.60;0.60;;;;;;;;;;5097842;28;20228;-87
2023/10/23 01:30:12;;;;;;;0.73;0.60;;;;;;;;;;5098924;28;20263;-86
2023/10/23 01:32:40;;;;;;;1.00;0.98;;;;;;;;;;5098217;28;20279;-89
2023/10/23 01:35:08;;;;;;;0.57;0.57;;;;;;;;;;5099480;28;20287;-89
2023/10/23 01:37:35;;;;;;;0.40;0.40;;;;;;;;;;5099348;28;20750;-86
2023/10/23 01:40:04;;;;;;;0.90;0.90;;;;;;;;;;5086234;28;20201;-87
2023/10/23 01:42:33;;;;;;;0.73;0.65;;;;;;;;;;5078980;28;20244;-85
2023/10/23 01:45:00;;;;;;;0.80;0.80;;;;;;;;;;5078019;28;20312;-86
2023/10/23 01:47:28;;;;;;;0.65;0.65;;;;;;;;;;5078886;28;20304;-86
2023/10/23 01:49:56;;;;;;;1.00;0.98;;;;;;;;;;5058942;28;20267;-87
2023/10/23 01:52:23;;;;;;;0.90;0.90;;;;;;;;;;5058793;28;20203;-86
2023/10/23 01:54:52;;;;;;;0.77;0.77;;;;;;;;;;5058840;28;20288;-85
2023/10/23 01:57:20;;;;;;;0.70;0.70;;;;;;;;;;5058658;28;20292;-87
2023/10/23 01:59:49;;;;;;;0.75;0.70;;;;;;;;;;5058500;28;20207;-86
2023/10/23 02:02:16;;;;;;;0.68;0.68;;;;;;;;;;5057756;28;20293;-88
2023/10/23 02:04:44;;;;;;;0.70;0.70;;;;;;;;;;5057760;28;20237;-87
2023/10/23 02:07:11;;;;;;;0.80;0.80;;;;;;;;;;5057209;28;20783;-90
2023/10/23 02:09:39;;;;;;;0.73;0.73;;;;;;;;;;5057415;28;20229;-88
2023/10/23 02:12:07;;;;;;;0.70;0.70;;;;;;;;;;5057809;28;20285;-88
2023/10/23 02:14:34;;;;;;;0.90;0.90;;;;;;;;;;5058080;28;20744;-86
2023/10/23 02:17:03;;;;;;;0.60;0.60;;;;;;;;;;5057592;28;20236;-87
2023/10/23 02:19:31;;;;;;;0.82;0.82;;;;;;;;;;5057558;28;20189;-86
2023/10/23 02:21:59;;;;;;;0.75;0.75;;;;;;;;;;5057817;28;20605;-85
2023/10/23 02:24:26;;;;;;;0.60;0.60;;;;;;;;;;5057426;28;20637;-86
2023/10/23 02:26:56;;;;;;;0.85;0.85;;;;;;;;;;5057012;28;20339;-87
2023/10/23 02:29:23;;;;;;;0.63;0.63;;;;;;;;;;5058033;28;20198;-87
2023/10/23 02:31:51;;;;;;;1.00;0.70;;;;;;;;;;5056330;28;20215;-89
2023/10/23 02:34:20;;;;;;;0.60;0.60;;;;;;;;;;5057491;28;20204;-89
2023/10/23 02:36:47;;;;;;;0.57;0.57;;;;;;;;;;5057741;28;20225;-88
2023/10/23 02:39:15;;;;;;;0.90;0.90;;;;;;;;;;5057099;28;20656;-89
2023/10/23 02:41:43;;;;;;;0.70;0.70;;;;;;;;;;5056720;28;20288;-89
2023/10/23 02:44:10;;;;;;;1.05;1.05;;;;;;;;;;5057150;28;20287;-89
2023/10/23 02:46:38;;;;;;;0.73;0.73;;;;;;;;;;5057028;28;20655;-88
2023/10/23 02:49:06;;;;;;;0.70;0.70;;;;;;;;;;5056462;28;20228;-90
2023/10/23 02:51:36;;;;;;;0.68;0.68;;;;;;;;;;5056994;28;20292;-88
2023/10/23 02:54:04;;;;;;;0.65;0.63;;;;;;;;;;5056813;28;20182;-88
2023/10/23 02:56:33;;;;;;;1.00;1.00;;;;;;;;;;5056502;28;20613;-86
2023/10/23 02:59:00;;;;;;;0.80;0.80;;;;;;;;;;5056320;28;20653;-86
2023/10/23 03:01:28;;;;;;;1.55;1.20;;;;;;;;;;5056826;28;20225;-86
2023/10/23 03:03:56;;;;;;;0.85;0.70;;;;;;;;;;5056932;28;20276;-86
2023/10/23 03:06:23;;;;;;;1.38;1.27;;;;;;;;;;5057244;28;20296;-86
2023/10/23 03:08:52;;;;;;;0.90;0.90;;;;;;;;;;5056473;28;20340;-89
2023/10/23 03:11:19;;;;;;;1.23;0.80;;;;;;;;;;5056452;28;20233;-87
2023/10/23 03:13:47;;;;;;;1.25;1.15;;;;;;;;;;5055845;28;20672;-88
2023/10/23 03:16:15;;;;;;;0.93;0.93;;;;;;;;;;5056155;28;20317;-87
2023/10/23 03:18:42;;;;;;;1.27;1.00;;;;;;;;;;5055933;28;20256;-88
2023/10/23 03:21:11;;;;;;;1.23;0.95;;;;;;;;;;5056409;28;20205;-90
2023/10/23 03:23:38;;;;;;;0.57;0.57;;;;;;;;;;5055958;28;20288;-89
2023/10/23 03:26:07;;;;;;;0.60;0.60;;;;;;;;;;5055844;28;20681;-86
2023/10/23 03:28:35;;;;;;;0.70;0.70;;;;;;;;;;5056154;28;20209;-88
2023/10/23 03:31:03;;;;;;;0.77;0.77;;;;;;;;;;5056655;28;20282;-86
2023/10/23 03:33:32;;;;;;;0.80;0.80;;;;;;;;;;5074608;28;20577;-88
2023/10/23 03:35:59;;;;;;;0.68;0.68;;;;;;;;;;5077372;28;20207;-89
2023/10/23 03:38:27;;;;;;;0.60;0.60;;;;;;;;;;5076775;28;20307;-88
2023/10/23 03:40:59;;;;;;;0.70;0.70;;;;;;;;;;5077267;28;20228;-85
2023/10/23 03:43:28;;;;;;;0.65;0.65;;;;;;;;;;5088387;28;20667;-86
2023/10/23 03:45:56;;;;;;;0.98;0.90;;;;;;;;;;5091800;28;20271;-86
2023/10/23 03:48:23;;;;;;;0.73;0.73;;;;;;;;;;5094226;28;20311;-86
2023/10/23 03:50:51;;;;;;;0.60;0.60;;;;;;;;;;5097927;28;20563;-86
2023/10/23 03:53:18;;;;;;;0.77;0.77;;;;;;;;;;5091226;28;20292;-86
2023/10/23 03:55:45;;;;;;;0.70;0.70;;;;;;;;;;5077610;28;20223;-86
2023/10/23 03:58:13;;;;;;;0.90;0.90;;;;;;;;;;5081188;28;20662;-86
2023/10/23 04:00:42;;;;;;;0.80;0.80;;;;;;;;;;5079954;28;20215;-86
2023/10/23 04:03:10;;;;;;;0.90;0.90;;;;;;;;;;5076164;28;20292;-86
2023/10/23 04:05:41;;;;;;;0.75;0.75;;;;;;;;;;5088254;28;20282;-86
2023/10/23 04:08:08;;;;;;;1.23;1.13;;;;;;;;;;5085433;28;20228;-85
2023/10/23 04:10:36;;;;;;;0.65;0.65;;;;;;;;;;5076694;28;20291;-87
2023/10/23 04:13:03;;;;;;;0.68;0.60;;;;;;;;;;5075656;28;20240;-86
2023/10/23 04:15:31;;;;;;;0.90;0.90;;;;;;;;;;5076926;28;20239;-86
2023/10/23 04:18:00;;;;;;;0.90;0.90;;;;;;;;;;5076098;28;20213;-86
2023/10/23 04:20:27;;;;;;;0.80;0.80;;;;;;;;;;5084308;28;20655;-86
2023/10/23 04:22:55;;;;;;;1.10;1.10;;;;;;;;;;5085671;28;20203;-85
2023/10/23 04:25:22;;;;;;;1.23;1.17;;;;;;;;;;5080791;28;20276;-85
2023/10/23 04:27:50;;;;;;;0.77;0.77;;;;;;;;;;5074637;28;20238;-85
2023/10/23 04:30:17;;;;;;;0.95;0.95;;;;;;;;;;5079892;28;20291;-85
2023/10/23 04:32:44;;;;;;;0.70;0.70;;;;;;;;;;5073170;28;20197;-86
2023/10/23 04:35:13;;;;;;;1.33;0.70;;;;;;;;;;5080068;28;20238;-85
2023/10/23 04:37:41;;;;;;;0.80;0.80;;;;;;;;;;5077930;28;20217;-86
2023/10/23 04:40:10;;;;;;;1.90;1.80;;;;;;;;;;5074422;28;20208;-86
2023/10/23 04:42:37;;;;;;;1.02;0.95;;;;;;;;;;5078574;28;20201;-86
2023/10/23 04:45:06;;;;;;;1.30;1.08;;;;;;;;;;5074109;28;20307;-86
2023/10/23 04:47:34;;;;;;;1.20;1.10;;;;;;;;;;5079469;28;20309;-86
2023/10/23 04:50:02;;;;;;;0.90;0.90;;;;;;;;;;5080753;28;20227;-86
2023/10/23 04:52:31;;;;;;;1.25;1.23;;;;;;;;;;5082536;28;20204;-86
2023/10/23 04:54:59;;;;;;;0.70;0.70;;;;;;;;;;5092256;28;20196;-85
2023/10/23 04:57:26;;;;;;;0.93;0.93;;;;;;;;;;5089561;28;20224;-86
2023/10/23 04:59:53;;;;;;;0.80;0.80;;;;;;;;;;5088769;28;20694;-86
2023/10/23 05:02:21;;;;;;;0.70;0.70;;;;;;;;;;5084806;28;20717;-85
2023/10/23 05:04:48;;;;;;;0.90;0.90;;;;;;;;;;5081538;28;20288;-87
2023/10/23 05:07:16;;;;;;;1.58;0.88;;;;;;;;;;5079965;28;20285;-86
2023/10/23 05:09:45;;;;;;;0.65;0.65;;;;;;;;;;5077259;28;20653;-87
2023/10/23 05:12:12;;;;;;;1.15;1.05;;;;;;;;;;5087571;28;20204;-86
2023/10/23 05:14:40;;;;;;;2.88;1.17;;;;;;;;;;5080403;28;20212;-86
2023/10/23 05:17:07;;;;;;;1.10;1.00;;;;;;;;;;5078716;28;20307;-86
2023/10/23 05:19:35;;;;;;;0.80;0.80;;;;;;;;;;5083239;28;20742;-86
2023/10/23 05:22:02;;;;;;;0.80;0.80;;;;;;;;;;5082376;28;20199;-86
2023/10/23 05:24:30;;;;;;;1.05;1.05;;;;;;;;;;5093680;28;20743;-86
2023/10/23 05:26:59;;;;;;;1.30;1.20;;;;;;;;;;5090603;28;20231;-86
2023/10/23 05:29:26;;;;;;;1.00;1.00;;;;;;;;;;5082247;28;20671;-86
2023/10/23 05:31:54;;;;;;;0.90;0.90;;;;;;;;;;5087646;28;20208;-86
2023/10/23 05:34:21;;;;;;;1.02;1.02;;;;;;;;;;5078689;28;20287;-86
2023/10/23 05:36:49;;;;;;;1.10;1.10;;;;;;;;;;5088877;28;20287;-85
2023/10/23 05:39:17;;;;;;;0.80;0.80;;;;;;;;;;5084318;28;20656;-85
2023/10/23 05:41:44;;;;;;;0.80;0.80;;;;;;;;;;5077025;28;20703;-85
2023/10/23 05:44:13;;;;;;;1.00;1.00;;;;;;;;;;5083146;28;20233;-87
2023/10/23 05:46:40;;;;;;;0.77;0.70;;;;;;;;;;5078454;28;20228;-85
2023/10/23 05:49:08;;;;;;;0.80;0.80;;;;;;;;;;5084744;28;20769;-86
2023/10/23 05:51:34;;;;;;;1.23;0.80;;;;;;;;;;5083602;28;20292;-87
2023/10/23 05:54:02;;;;;;;0.80;0.80;;;;;;;;;;5079394;28;20205;-87
2023/10/23 05:56:30;;;;;;;0.82;0.80;;;;;;;;;;5084785;28;20192;-87
2023/10/23 05:58:57;;;;;;;2.58;1.27;;;;;;;;;;5082989;28;20316;-88
2023/10/23 06:01:26;;;;;;;1.73;1.63;;;;;;;;;;5087745;28;20264;-86
2023/10/23 06:03:54;;;;;;;1.38;1.27;;;;;;;;;;5080092;28;20289;-87
2023/10/23 06:06:21;;;;;;;1.50;1.40;;;;;;;;;;5098763;28;20226;-86
2023/10/23 06:08:49;;;;;;;1.50;1.40;;;;;;;;;;5087932;28;20544;-87
2023/10/23 06:11:17;;;;;;;1.23;1.17;;;;;;;;;;5089186;28;20653;-86
2023/10/23 06:13:44;;;;;;;1.67;1.55;;;;;;;;;;5090288;28;20658;-86
2023/10/23 06:16:11;;;;;;;1.85;1.55;;;;;;;;;;5081076;28;20223;-87
2023/10/23 06:18:40;;;;;;;1.27;1.25;;;;;;;;;;5098551;28;20315;-86
2023/10/23 06:21:08;;;;;;;1.60;1.50;;;;;;;;;;5099890;28;20276;-87
2023/10/23 06:23:38;;;;;;;1.10;1.10;;;;;;;;;;5095212;28;20209;-87
2023/10/23 06:26:06;;;;;;;1.50;1.40;;;;;;;;;;5098948;28;20334;-86
2023/10/23 06:28:36;;;;;;;1.50;1.40;;;;;;;;;;5094056;28;20655;-86
2023/10/23 06:31:07;;;;;;;4.50;1.60;;;;;;;;;;5098813;28;20200;-86
2023/10/23 06:33:34;;;;;;;0.93;0.93;;;;;;;;;;5094467;28;20284;-87
2023/10/23 06:36:05;;;;;;;1.63;1.27;;;;;;;;;;5093863;28;20210;-87
2023/10/23 06:38:33;;;;;;;0.80;0.80;;;;;;;;;;5097350;28;20658;-88
2023/10/23 06:41:04;;;;;;;1.13;1.13;;;;;;;;;;5097002;28;20273;-86
2023/10/23 06:43:32;;;;;;;1.10;1.10;;;;;;;;;;5096756;28;20232;-87
2023/10/23 06:45:59;;;;;;;0.80;0.80;;;;;;;;;;5076826;28;20272;-86
2023/10/23 06:48:27;;;;;;;0.90;0.90;;;;;;;;;;5075768;28;20312;-86
2023/10/23 06:50:55;;;;;;;0.80;0.77;;;;;;;;;;5077189;28;20268;-86
2023/10/23 06:53:23;;;;;;;1.00;1.00;;;;;;;;;;5077043;28;20201;-85
2023/10/23 06:55:52;;;;;;;0.80;0.80;;;;;;;;;;5095763;28;20291;-86
2023/10/23 06:58:20;;;;;;;1.48;1.38;;;;;;;;;;5096176;28;20243;-86
2023/10/23 07:00:47;;;;;;;1.08;1.08;;;;;;;;;;5097217;28;20204;-86
2023/10/23 07:03:15;;;;;;;1.60;1.50;;;;;;;;;;5097138;28;20291;-86
2023/10/23 07:05:43;;;;;;;1.23;1.13;;;;;;;;;;5091872;28;20643;-86
2023/10/23 07:08:11;;;;;;;1.33;1.08;;;;;;;;;;5092721;28;20674;-86
2023/10/23 07:10:40;;;;;;;1.20;1.20;;;;;;;;;;5093664;28;20236;-86
2023/10/23 07:13:07;;;;;;;1.80;1.70;;;;;;;;;;5074176;28;20292;-86
2023/10/23 07:15:35;;;;;;;1.60;1.50;;;;;;;;;;5096727;28;20287;-86
2023/10/23 07:18:04;;;;;;;2.25;2.05;;;;;;;;;;5093789;28;20661;-86
2023/10/23 07:20:32;;;;;;;1.50;1.40;;;;;;;;;;5087174;28;20200;-86
2023/10/23 07:22:59;;;;;;;1.30;1.30;;;;;;;;;;5080264;28;20272;-86
2023/10/23 07:25:27;;;;;;;1.85;1.75;;;;;;;;;;5092385;28;20212;-87
2023/10/23 07:27:56;;;;;;;1.52;1.42;;;;;;;;;;5096069;28;20236;-86
2023/10/23 07:30:24;;;;;;;1.05;1.05;;;;;;;;;;5090381;28;20268;-87
2023/10/23 07:32:51;;;;;;;1.40;1.30;;;;;;;;;;5090156;28;20212;-87
2023/10/23 07:35:20;;;;;;;1.70;1.30;;;;;;;;;;5092615;28;20268;-87
2023/10/23 07:37:47;;;;;;;2.20;2.00;;;;;;;;;;5098385;28;20306;-87
2023/10/23 07:40:15;;;;;;;1.60;1.50;;;;;;;;;;5097126;28;20291;-87
2023/10/23 07:42:43;;;;;;;1.60;1.50;;;;;;;;;;5077809;28;20226;-87
2023/10/23 07:45:12;;;;;;;1.25;1.17;;;;;;;;;;5095051;28;20579;-87
2023/10/23 07:47:39;;;;;;;2.28;2.08;;;;;;;;;;5096352;28;20307;-87
2023/10/23 07:50:08;;;;;;;1.67;1.58;;;;;;;;;;5086707;28;20236;-86
2023/10/23 07:52:35;;;;;;;3.05;1.80;;;;;;;;;;5096982;28;20264;-87
2023/10/23 07:55:03;;;;;;;2.20;2.00;;;;;;;;;;5095507;28;20291;-87
2023/10/23 07:57:31;;;;;;;2.97;1.70;;;;;;;;;;5096325;28;20647;-87
2023/10/23 07:59:58;;;;;;;2.25;2.03;;;;;;;;;;5096777;28;20629;-85
2023/10/23 08:02:27;;;;;;;1.60;1.50;;;;;;;;;;5090268;28;20204;-87
2023/10/23 08:04:55;;;;;;;1.83;1.73;;;;;;;;;;5082105;28;20204;-86
2023/10/23 08:07:22;;;;;;;1.73;1.63;;;;;;;;;;5093706;28;20307;-87
2023/10/23 08:09:50;;;;;;;2.17;1.98;;;;;;;;;;5085753;28;20200;-86
2023/10/23 08:12:17;;;;;;;1.70;1.60;;;;;;;;;;5076413;28;20300;-86
2023/10/23 08:14:45;;;;;;;1.75;1.55;;;;;;;;;;5075386;28;20283;-86
2023/10/23 08:17:12;;;;;;;1.83;1.73;;;;;;;;;;5095490;28;20212;-86
2023/10/23 08:19:41;;;;;;;2.60;1.58;;;;;;;;;;5098359;28;20733;-86
2023/10/23 08:22:09;;;;;;;1.20;1.15;;;;;;;;;;5099296;28;20217;-86
2023/10/23 08:24:36;;;;;;;1.02;1.02;;;;;;;;;;5085333;28;20292;-86
2023/10/23 08:27:04;;;;;;;1.63;0.82;;;;;;;;;;5080682;28;20238;-86
2023/10/23 08:29:32;;;;;;;2.30;1.52;;;;;;;;;;5098947;28;20219;-86
2023/10/23 08:31:59;;;;;;;1.10;1.10;;;;;;;;;;5099897;28;20211;-85
2023/10/23 08:34:27;;;;;;;1.50;1.10;;;;;;;;;;5096466;28;20582;-87
2023/10/23 08:36:56;;;;;;;2.00;1.60;;;;;;;;;;5100214;28;20264;-86
2023/10/23 08:39:24;;;;;;;1.65;1.55;;;;;;;;;;5103068;28;20230;-86
2023/10/23 08:41:53;;;;;;;2.17;1.85;;;;;;;;;;5097917;28;20224;-86
2023/10/23 08:44:21;;;;;;;1.35;1.25;;;;;;;;;;5103151;28;20581;-86
2023/10/23 08:46:48;;;;;;;1.33;1.23;;;;;;;;;;5101634;28;20286;-86
2023/10/23 08:49:16;;;;;;;1.20;1.15;;;;;;;;;;5075512;28;20235;-85
2023/10/23 08:51:43;;;;;;;1.00;1.00;;;;;;;;;;5099194;28;20456;-86
2023/10/23 08:54:17;;;;;;;1.25;1.15;;;;;;;;;;5098470;28;20240;-86
2023/10/23 08:56:45;;;;;;;1.88;1.10;;;;;;;;;;5102402;28;20229;-87
2023/10/23 08:59:14;;;;;;;1.40;1.30;;;;;;;;;;5102801;28;20208;-87
2023/10/23 09:01:42;;;;;;;1.58;1.48;;;;;;;;;;5084679;28;20200;-87
2023/10/23 09:04:11;;;;;;;1.30;1.20;;;;;;;;;;5078754;28;20196;-86
2023/10/23 09:06:38;;;;;;;0.90;0.90;;;;;;;;;;5102316;28;20910;-86
2023/10/23 09:09:07;;;;;;;0.82;0.82;;;;;;;;;;5082388;28;20229;-86
2023/10/23 09:11:44;;;;;;;1.20;1.20;;;;;;;;;;5096700;28;20253;-87
2023/10/23 09:14:13;;;;;;;1.20;1.20;;;;;;;;;;5077853;28;20207;-87
2023/10/23 09:16:40;;;;;;;1.00;1.00;;;;;;;;;;5098839;28;20287;-86
2023/10/23 09:19:07;;;;;;;1.50;1.10;;;;;;;;;;5098578;28;20413;-87
2023/10/23 09:21:35;;;;;;;1.20;1.20;;;;;;;;;;5090547;28;20202;-87
2023/10/23 09:24:04;;;;;;;1.45;1.35;;;;;;;;;;5101839;28;20224;-87
2023/10/23 09:26:31;;;;;;;1.80;1.33;;;;;;;;;;5098656;28;20219;-87
2023/10/23 09:29:00;;;;;;;1.10;1.10;;;;;;;;;;5094617;28;20677;-85
2023/10/23 09:31:28;;;;;;;1.75;1.23;;;;;;;;;;5088007;28;20479;-86
2023/10/23 09:33:56;;;;;;;2.92;1.33;;;;;;;;;;5080225;28;20202;-86
2023/10/23 09:36:23;;;;;;;0.80;0.80;;;;;;;;;;5098581;28;20635;-86
2023/10/23 09:38:58;;;;;;;1.45;0.98;;;;;;;;;;5094746;28;20248;-86
2023/10/23 09:41:27;;;;;;;1.23;1.13;;;;;;;;;;5102006;22;20578;-90
2023/10/23 09:43:57;;;;;;;1.35;1.10;;;;;;;;;;5095157;28;20207;-90
2023/10/23 09:46:27;;;;;;;1.00;1.00;;;;;;;;;;5095429;28;20295;-89
2023/10/23 09:48:55;;;;;;;1.20;1.10;;;;;;;;;;5095222;28;20760;-89
2023/10/23 09:51:26;;;;;;;1.20;1.15;;;;;;;;;;5092137;28;20208;-88
2023/10/23 09:56:22;;;;;;;0.80;0.80;;;;;;;;;;5068706;28;20201;-87
2023/10/23 09:58:58;;;;;;;0.95;0.70;;;;;;;;;;5066573;28;20201;-87
2023/10/23 10:01:36;;;;;;;1.25;1.00;;;;;;;;;;5060028;28;20284;-87
2023/10/23 10:04:12;;;;;;;4.15;1.45;;;;;;;;;;5064734;28;20236;-87
2023/10/23 10:06:46;;;;;;;1.23;1.10;;;;;;;;;;5073893;28;20287;-87
2023/10/23 10:09:15;;;;;;;1.35;1.08;;;;;;;;;;5061400;28;20251;-87
2023/10/23 10:11:43;;;;;;;1.27;1.17;;;;;;;;;;5053831;28;20260;-88
2023/10/23 10:14:12;;;;;;;0.95;0.90;;;;;;;;;;5065029;28;20224;-87
2023/10/23 10:16:41;;;;;;;0.80;0.80;;;;;;;;;;5070691;28;20202;-87
2023/10/23 10:19:09;;;;;;;1.17;0.77;;;;;;;;;;5069315;28;20288;-87
2023/10/23 10:21:45;;;;;;;0.98;0.95;;;;;;;;;;5073302;28;20654;-87
2023/10/23 10:24:14;;;;;;;2.08;1.65;;;;;;;;;;5073338;28;20693;-88
2023/10/23 10:26:41;;;;;;;1.48;1.00;;;;;;;;;;5073248;28;20204;-87
2023/10/23 10:29:10;;;;;;;1.33;1.23;;;;;;;;;;5069459;28;20234;-87
2023/10/23 10:32:09;;;;;;;1.10;0.88;;;;;;;;;;5073008;28;20681;-88
2023/10/23 10:34:38;;;;;;;0.57;0.57;;;;;;;;;;5069868;28;20229;-87
2023/10/23 10:37:07;;;;;;;1.20;1.10;;;;;;;;;;5073017;28;20585;-87
2023/10/23 10:40:09;;;;;;;1.15;1.05;;;;;;;;;;5073105;28;20212;-87
2023/10/23 10:42:43;;;;;;;3.47;0.80;;;;;;;;;;5071743;28;20722;-87
2023/10/23 10:45:19;;;;;;;0.70;0.70;;;;;;;;;;5072786;28;20227;-87
2023/10/23 10:47:52;;;;;;;0.63;0.63;;;;;;;;;;5072969;28;20593;-87
2023/10/23 10:50:34;;;;;;;1.25;0.90;;;;;;;;;;5072953;28;20228;-88
2023/10/23 10:53:03;;;;;;;1.58;0.85;;;;;;;;;;5072681;28;20292;-88
2023/10/23 10:55:31;;;;;;;2.00;0.63;;;;;;;;;;5072456;28;20248;-87
2023/10/23 10:58:00;;;;;;;1.20;1.10;;;;;;;;;;5072538;28;20710;-87
2023/10/23 11:00:31;;;;;;;2.00;1.20;;;;;;;;;;5068766;28;20213;-87
2023/10/23 11:03:00;;;;;;;1.77;0.70;;;;;;;;;;5072417;28;20205;-87
2023/10/23 11:05:28;;;;;;;0.60;0.60;;;;;;;;;;5068894;28;20217;-87
2023/10/23 11:07:56;;;;;;;0.60;0.60;;;;;;;;;;5072533;28;20281;-88
2023/10/23 11:10:23;;;;;;;0.65;0.65;;;;;;;;;;5072733;28;20217;-87
2023/10/23 11:12:51;;;;;;;0.90;0.80;;;;;;;;;;5072594;28;20205;-87
2023/10/23 11:15:19;;;;;;;0.90;0.90;;;;;;;;;;5072218;28;20307;-89
2023/10/23 11:17:46;;;;;;;1.33;0.90;;;;;;;;;;5072287;28;20282;-87
2023/10/23 11:20:16;;;;;;;1.10;1.00;;;;;;;;;;5071861;28;20730;-88
2023/10/23 11:22:47;;;;;;;2.22;1.38;;;;;;;;;;5065134;28;20208;-87
2023/10/23 11:25:15;;;;;;;0.90;0.90;;;;;;;;;;5048254;28;20591;-87
2023/10/23 11:27:43;;;;;;;1.33;0.80;;;;;;;;;;5052227;28;20228;-87
2023/10/23 11:30:11;;;;;;;0.73;0.63;;;;;;;;;;5052124;28;20226;-87
2023/10/23 11:32:40;;;;;;;0.65;0.65;;;;;;;;;;5063320;28;20227;-87
2023/10/23 11:35:08;;;;;;;0.82;0.82;;;;;;;;;;5068198;28;20221;-88
2023/10/23 11:37:41;;;;;;;1.98;0.98;;;;;;;;;;5069041;28;20209;-88
2023/10/23 11:40:11;;;;;;;1.25;1.00;;;;;;;;;;5068121;28;20284;-87
2023/10/23 11:42:47;;;;;;;0.90;0.73;;;;;;;;;;5072051;28;20705;-87
2023/10/23 11:45:17;;;;;;;0.63;0.63;;;;;;;;;;5048121;28;20271;-87
2023/10/23 11:47:44;;;;;;;1.98;1.13;;;;;;;;;;5064754;28;20207;-88
2023/10/23 11:50:14;;;;;;;0.80;0.80;;;;;;;;;;5047375;28;20229;-88
2023/10/23 11:52:44;;;;;;;0.98;0.90;;;;;;;;;;5064444;28;20281;-88
2023/10/23 11:55:14;;;;;;;1.60;0.90;;;;;;;;;;5055460;28;20229;-87
2023/10/23 11:57:42;;;;;;;1.00;0.90;;;;;;;;;;5064211;28;20201;-87
2023/10/23 12:00:12;;;;;;;1.02;0.93;;;;;;;;;;5066981;28;20274;-87
2023/10/23 12:02:41;;;;;;;2.65;0.82;;;;;;;;;;5071844;28;20208;-88
2023/10/23 12:05:12;;;;;;;0.75;0.70;;;;;;;;;;5056697;28;20224;-87
2023/10/23 12:07:46;;;;;;;0.70;0.70;;;;;;;;;;5051769;28;20210;-87
2023/10/23 12:10:17;;;;;;;2.50;1.15;;;;;;;;;;5051872;28;20225;-87
2023/10/23 12:12:46;;;;;;;1.05;0.88;;;;;;;;;;5055435;28;20680;-87
2023/10/23 12:15:16;;;;;;;1.23;1.05;;;;;;;;;;5054898;28;20231;-87
2023/10/23 12:17:43;;;;;;;1.85;0.95;;;;;;;;;;5071944;28;20572;-87
2023/10/23 12:20:14;;;;;;;0.82;0.82;;;;;;;;;;5071964;28;20288;-87
2023/10/23 12:22:45;;;;;;;1.63;0.80;;;;;;;;;;5071673;28;20547;-87
2023/10/23 12:25:16;;;;;;;0.77;0.77;;;;;;;;;;5062716;28;20235;-88
2023/10/23 12:27:43;;;;;;;1.48;0.93;;;;;;;;;;5071395;28;20242;-87
2023/10/23 12:30:14;;;;;;;0.90;0.90;;;;;;;;;;5071551;28;20355;-87
2023/10/23 12:32:42;;;;;;;1.15;0.93;;;;;;;;;;5071513;28;20212;-87
2023/10/23 12:35:11;;;;;;;1.70;1.20;;;;;;;;;;5064869;28;20609;-87
2023/10/23 12:37:39;;;;;;;1.00;0.73;;;;;;;;;;5071167;28;20759;-87
2023/10/23 12:40:10;;;;;;;0.85;0.85;;;;;;;;;;5071185;28;20267;-87
2023/10/23 12:42:39;;;;;;;1.85;1.08;;;;;;;;;;5052379;28;20218;-87
2023/10/23 12:45:09;;;;;;;1.15;0.80;;;;;;;;;;5050698;28;20896;-87
2023/10/23 12:47:36;;;;;;;3.78;1.30;;;;;;;;;;5051325;28;20201;-87
2023/10/23 12:50:04;;;;;;;1.88;0.85;;;;;;;;;;5051171;28;20229;-87
2023/10/23 12:52:32;;;;;;;1.17;1.10;;;;;;;;;;5051156;28;20198;-87
2023/10/23 12:55:00;;;;;;;1.65;0.80;;;;;;;;;;5050296;28;20253;-87
2023/10/23 12:57:28;;;;;;;1.50;1.00;;;;;;;;;;5048043;28;20281;-88
2023/10/23 12:59:56;;;;;;;1.75;1.05;;;;;;;;;;5070980;28;20662;-87
2023/10/23 13:02:23;;;;;;;1.80;0.93;;;;;;;;;;5067631;28;20204;-87
2023/10/23 13:04:51;;;;;;;4.43;1.77;;;;;;;;;;5067741;28;20224;-86
2023/10/23 13:07:18;;;;;;;0.70;0.70;;;;;;;;;;5074858;28;20292;-87
2023/10/23 13:09:46;;;;;;;1.15;1.08;;;;;;;;;;5067882;28;20291;-87
2023/10/23 13:12:14;;;;;;;1.27;1.17;;;;;;;;;;5050714;28;20206;-88
2023/10/23 13:14:42;;;;;;;1.58;1.00;;;;;;;;;;5054256;28;20320;-88
2023/10/23 13:17:10;;;;;;;1.10;0.82;;;;;;;;;;5073654;28;20300;-87
2023/10/23 13:19:38;;;;;;;0.98;0.85;;;;;;;;;;5074399;28;20203;-87
2023/10/23 13:22:05;;;;;;;1.00;0.80;;;;;;;;;;5074787;28;20239;-87
2023/10/23 13:24:33;;;;;;;3.50;1.33;;;;;;;;;;5074317;28;20220;-88
2023/10/23 13:27:01;;;;;;;0.90;0.85;;;;;;;;;;5074477;28;20576;-87
2023/10/23 13:29:32;;;;;;;2.08;1.40;;;;;;;;;;5074577;28;20201;-88
2023/10/23 13:32:01;;;;;;;3.13;1.70;;;;;;;;;;5074226;28;20243;-87
2023/10/23 13:34:28;;;;;;;1.30;0.90;;;;;;;;;;5070442;28;20231;-88
2023/10/23 13:36:56;;;;;;;1.05;0.95;;;;;;;;;;5074262;28;20228;-86
2023/10/23 13:39:23;;;;;;;1.13;0.90;;;;;;;;;;5074428;28;20203;-87
2023/10/23 13:41:52;;;;;;;1.33;0.75;;;;;;;;;;5069164;28;20202;-87
2023/10/23 13:44:20;;;;;;;1.38;0.93;;;;;;;;;;5067254;28;20255;-86
2023/10/23 13:46:47;;;;;;;0.80;0.80;;;;;;;;;;5070525;28;20211;-87
2023/10/23 13:49:16;;;;;;;0.70;0.70;;;;;;;;;;5074110;28;20201;-87
2023/10/23 13:51:44;;;;;;;1.27;0.82;;;;;;;;;;5066178;28;20224;-88
2023/10/23 13:54:11;;;;;;;1.85;1.48;;;;;;;;;;5058913;28;20309;-87
2023/10/23 13:56:39;;;;;;;1.73;0.93;;;;;;;;;;5051754;28;20221;-87
2023/10/23 13:59:06;;;;;;;1.30;1.10;;;;;;;;;;5058780;28;20212;-87
2023/10/23 14:01:34;;;;;;;1.80;1.05;;;;;;;;;;5053853;28;20297;-87
2023/10/23 14:04:01;;;;;;;1.50;0.98;;;;;;;;;;5053189;28;20221;-87
2023/10/23 14:06:30;;;;;;;2.75;1.13;;;;;;;;;;5073487;28;20204;-86
2023/10/23 14:08:58;;;;;;;0.77;0.60;;;;;;;;;;5073605;28;20215;-87
2023/10/23 14:11:25;;;;;;;0.93;0.85;;;;;;;;;;5073447;28;20690;-87
2023/10/23 14:13:53;;;;;;;1.70;1.27;;;;;;;;;;5072276;28;20311;-87
2023/10/23 14:16:20;;;;;;;1.58;0.98;;;;;;;;;;5069921;28;20593;-87
2023/10/23 14:18:48;;;;;;;0.80;0.80;;;;;;;;;;5073569;28;20208;-87
2023/10/23 14:21:15;;;;;;;5.22;1.25;;;;;;;;;;5073703;28;20201;-87
2023/10/23 14:23:44;;;;;;;1.30;0.90;;;;;;;;;;5065761;28;20596;-87
2023/10/23 14:26:12;;;;;;;1.52;0.95;;;;;;;;;;5072791;28;20201;-87
2023/10/23 14:28:40;;;;;;;1.67;1.00;;;;;;;;;;5073444;28;20219;-87
2023/10/23 14:31:07;;;;;;;1.30;1.00;;;;;;;;;;5073298;28;20224;-87
2023/10/23 14:33:35;;;;;;;2.67;1.02;;;;;;;;;;5070611;28;20304;-87
2023/10/23 14:36:03;;;;;;;2.50;0.90;;;;;;;;;;5070047;28;20208;-87
2023/10/23 14:38:31;;;;;;;1.67;1.10;;;;;;;;;;5073469;28;20209;-88
2023/10/23 14:41:01;;;;;;;1.90;1.30;;;;;;;;;;5072882;28;20693;-88
2023/10/23 14:43:31;;;;;;;1.25;1.15;;;;;;;;;;5072830;28;20201;-87
2023/10/23 14:45:58;;;;;;;1.20;1.10;;;;;;;;;;5054277;28;20209;-87
2023/10/23 14:48:28;;;;;;;1.30;0.98;;;;;;;;;;5050802;28;20216;-87
2023/10/23 14:50:56;;;;;;;1.17;1.08;;;;;;;;;;5052938;28;20312;-87
2023/10/23 14:53:26;;;;;;;1.45;0.90;;;;;;;;;;5057041;28;20247;-87